Kakushu Maru — JG5688 — position and weather

sailwx.info

Track history (hours):
 
Tides and Currents Weather Stations Pressure Air Temp Water Temp Dewpoint Dewpoint Depression Visibility Wind Speed Wind Dir Waves Ship Positions

Kakushu Maru

Last reported at 2014-Oct-28 23:31 UTC. Time now 2014-Oct-30 23:44 UTC.
Position N 35°15' E 139°46'.

Length 105 m; draft 6.6 m.

Type: Tanker. MMSI: 431101016.

Date/timePositionNaut miles runAvg speedWind from/ knotsBaromVisibWave heightAir tempDewpointWater temp
2014-Oct-28 23:31N 35°15' E 139°46'1111.2
2014-Oct-28 22:33N 35°26' E 139°45'6 6.1
2014-Oct-28 21:33N 35°32' E 139°46'0 0.0
2014-Oct-28 00:33N 35°32' E 139°46'3 2.6
2014-Oct-27 23:33N 35°30' E 139°44'6 5.3
2014-Oct-27 22:30N 35°24' E 139°45'0 0.1
2014-Oct-27 21:33N 35°24' E 139°45'0 0.0
2014-Oct-27 20:33N 35°24' E 139°45'0 0.0
2014-Oct-27 19:33N 35°24' E 139°45'0 0.0
2014-Oct-27 18:33N 35°24' E 139°45'0 0.0
2014-Oct-27 17:33N 35°24' E 139°45'0 0.0
2014-Oct-27 16:33N 35°24' E 139°45'0 0.0
2014-Oct-27 15:33N 35°24' E 139°45'0 0.0
2014-Oct-27 14:33N 35°24' E 139°45'0 0.0
2014-Oct-27 13:33N 35°24' E 139°45'0 0.0
2014-Oct-27 12:33N 35°24' E 139°45'0 0.0
2014-Oct-27 11:32N 35°24' E 139°45'0 0.0
2014-Oct-27 10:32N 35°24' E 139°45'0 0.0
2014-Oct-27 09:32N 35°24' E 139°45'0 0.1
2014-Oct-27 08:26N 35°24' E 139°45'0 0.0
2014-Oct-27 07:32N 35°24' E 139°45'0 0.0
2014-Oct-27 06:32N 35°24' E 139°45'5 4.7
2014-Oct-27 05:33N 35°24' E 139°39'1 0.7
2014-Oct-27 04:32N 35°25' E 139°39'0 0.0
2014-Oct-27 03:32N 35°25' E 139°39'0 0.0
2014-Oct-27 02:32N 35°25' E 139°39'0 0.0
2014-Oct-27 01:32N 35°25' E 139°39'0 0.0
2014-Oct-27 00:32N 35°25' E 139°39'0 0.0
2014-Oct-26 23:32N 35°25' E 139°39'3 3.2
2014-Oct-26 22:33N 35°23' E 139°42'1211.2
2014-Oct-26 21:31N 35°12' E 139°47'24710.2
2014-Oct-25 21:23N 34°01' E 134°59'1113.6
2014-Oct-25 20:34N 34°12' E 134°59'1413.9
2014-Oct-25 19:33N 34°26' E 135°01'1110.3
2014-Oct-25 18:31N 34°36' E 134°57'  
2014-Oct-22 08:33N 34°36' E 134°55'10 9.6
2014-Oct-22 07:33N 34°30' E 135°04'1414.0
2014-Oct-22 06:32N 34°16' E 134°59'1313.2
2014-Oct-22 05:34N 34°04' E 134°60'  
2014-Oct-19 15:32N 34°00' E 134°59'1414.2
2014-Oct-19 14:33N 34°14' E 134°59'1514.8
2014-Oct-19 13:33N 34°29' E 135°02'9 8.9
2014-Oct-19 12:33N 34°36' E 134°55'  
Track history (hours):
 
Tides and Currents Weather Stations Pressure Air Temp Water Temp Dewpoint Dewpoint Depression Visibility Wind Speed Wind Dir Waves Ship Positions

Kakushu Maru

Last reported at 2014-Oct-28 23:31 UTC. Time now 2014-Oct-30 23:44 UTC.
Position N 35°15' E 139°46'.

Length 105 m; draft 6.6 m.

Type: Tanker. MMSI: 431101016.

Date/timePositionNaut miles runAvg speedWind from/ knotsBaromVisibWave heightAir tempDewpointWater temp
2014-Oct-28 23:31N 35°15' E 139°46'1111.2
2014-Oct-28 22:33N 35°26' E 139°45'6 6.1
2014-Oct-28 21:33N 35°32' E 139°46'0 0.0
2014-Oct-28 00:33N 35°32' E 139°46'3 2.6
2014-Oct-27 23:33N 35°30' E 139°44'6 5.3
2014-Oct-27 22:30N 35°24' E 139°45'0 0.1
2014-Oct-27 21:33N 35°24' E 139°45'0 0.0
2014-Oct-27 20:33N 35°24' E 139°45'0 0.0
2014-Oct-27 19:33N 35°24' E 139°45'0 0.0
2014-Oct-27 18:33N 35°24' E 139°45'0 0.0
2014-Oct-27 17:33N 35°24' E 139°45'0 0.0
2014-Oct-27 16:33N 35°24' E 139°45'0 0.0
2014-Oct-27 15:33N 35°24' E 139°45'0 0.0
2014-Oct-27 14:33N 35°24' E 139°45'0 0.0
2014-Oct-27 13:33N 35°24' E 139°45'0 0.0
2014-Oct-27 12:33N 35°24' E 139°45'0 0.0
2014-Oct-27 11:32N 35°24' E 139°45'0 0.0
2014-Oct-27 10:32N 35°24' E 139°45'0 0.0
2014-Oct-27 09:32N 35°24' E 139°45'0 0.1
2014-Oct-27 08:26N 35°24' E 139°45'0 0.0
2014-Oct-27 07:32N 35°24' E 139°45'0 0.0
2014-Oct-27 06:32N 35°24' E 139°45'5 4.7
2014-Oct-27 05:33N 35°24' E 139°39'1 0.7
2014-Oct-27 04:32N 35°25' E 139°39'0 0.0
2014-Oct-27 03:32N 35°25' E 139°39'0 0.0
2014-Oct-27 02:32N 35°25' E 139°39'0 0.0
2014-Oct-27 01:32N 35°25' E 139°39'0 0.0
2014-Oct-27 00:32N 35°25' E 139°39'0 0.0
2014-Oct-26 23:32N 35°25' E 139°39'3 3.2
2014-Oct-26 22:33N 35°23' E 139°42'1211.2
2014-Oct-26 21:31N 35°12' E 139°47'24710.2
2014-Oct-25 21:23N 34°01' E 134°59'1113.6
2014-Oct-25 20:34N 34°12' E 134°59'1413.9
2014-Oct-25 19:33N 34°26' E 135°01'1110.3
2014-Oct-25 18:31N 34°36' E 134°57'  
2014-Oct-22 08:33N 34°36' E 134°55'10 9.6
2014-Oct-22 07:33N 34°30' E 135°04'1414.0
2014-Oct-22 06:32N 34°16' E 134°59'1313.2
2014-Oct-22 05:34N 34°04' E 134°60'  
2014-Oct-19 15:32N 34°00' E 134°59'1414.2
2014-Oct-19 14:33N 34°14' E 134°59'1514.8
2014-Oct-19 13:33N 34°29' E 135°02'9 8.9
2014-Oct-19 12:33N 34°36' E 134°55'  

Dump ship's entire track history